Time;durP1;ratioP1;P1;durP2;ratioP2;P2;SDS_P1;SDS_P2;PMS_P1;PMS_P2;Temp;Humidity;BMP_temperature;BMP_pressure;BME280_temperature;BME280_humidity;BME280_pressure;Samples;Min_cycle;Max_cycle;Signal;HPM_P1;HPM_P2
2023/07/29 00:00:49;;;;;;;7.45;5.75;;;18.80;99.90;;;;;;5054755;28;20049;-69
2023/07/29 00:03:15;;;;;;;4.97;4.47;;;18.80;99.90;;;;;;5055248;28;20121;-68
2023/07/29 00:05:40;;;;;;;6.35;5.13;;;18.80;99.90;;;;;;5054732;28;20356;-67
2023/07/29 00:08:06;;;;;;;5.60;5.03;;;18.80;99.90;;;;;;5054354;28;20052;-67
2023/07/29 00:10:35;;;;;;;7.97;6.32;;;18.80;99.90;;;;;;5055115;28;20037;-68
2023/07/29 00:13:01;;;;;;;7.18;5.88;;;18.80;99.90;;;;;;5037601;28;20041;-67
2023/07/29 00:15:26;;;;;;;7.53;6.82;;;18.80;99.90;;;;;;5054551;28;20045;-68
2023/07/29 00:17:52;;;;;;;8.95;6.60;;;18.80;99.90;;;;;;5054559;28;20120;-67
2023/07/29 00:20:18;;;;;;;10.25;6.50;;;18.90;99.90;;;;;;5054034;28;20052;-67
2023/07/29 00:22:43;;;;;;;6.93;6.18;;;18.90;99.90;;;;;;5054459;28;20045;-67
2023/07/29 00:25:09;;;;;;;8.48;6.22;;;18.90;99.90;;;;;;5054212;28;20052;-67
2023/07/29 00:27:35;;;;;;;9.52;6.80;;;18.80;99.90;;;;;;5036644;28;20129;-67
2023/07/29 00:30:00;;;;;;;7.90;6.18;;;18.80;99.90;;;;;;5036811;28;20131;-67
2023/07/29 00:32:29;;;;;;;7.97;6.85;;;18.80;99.90;;;;;;5054255;28;20048;-67
2023/07/29 00:34:55;;;;;;;8.10;7.10;;;18.80;99.90;;;;;;5054484;28;20122;-67
2023/07/29 00:37:21;;;;;;;9.13;7.07;;;18.80;99.90;;;;;;5054087;28;20473;-67
2023/07/29 00:39:47;;;;;;;8.40;7.03;;;18.80;99.90;;;;;;5053971;28;20068;-66
2023/07/29 00:42:12;;;;;;;7.00;5.90;;;19.40;99.90;;;;;;5054202;28;20059;-67
2023/07/29 00:44:38;;;;;;;10.23;6.95;;;18.80;99.90;;;;;;5054435;28;20106;-68
2023/07/29 00:47:05;;;;;;;10.15;6.65;;;18.70;99.90;;;;;;5053834;28;20045;-67
2023/07/29 00:49:32;;;;;;;6.22;5.55;;;18.70;99.90;;;;;;5053997;28;20045;-68
2023/07/29 00:51:58;;;;;;;6.95;6.32;;;18.70;99.90;;;;;;5036391;28;20045;-67
2023/07/29 00:54:23;;;;;;;10.80;7.43;;;18.60;99.90;;;;;;5036318;28;20037;-68
2023/07/29 00:56:50;;;;;;;9.88;7.38;;;18.60;99.90;;;;;;5053851;28;20110;-68
2023/07/29 00:59:15;;;;;;;6.22;5.63;;;18.50;99.90;;;;;;5053870;28;20052;-67
2023/07/29 01:01:42;;;;;;;8.15;6.78;;;18.50;99.90;;;;;;5053712;28;20044;-68
2023/07/29 01:04:07;;;;;;;10.02;6.65;;;18.50;99.90;;;;;;5053964;28;20084;-67
2023/07/29 01:07:09;;;;;;;9.55;7.72;;;18.50;99.90;;;;;;5053861;28;20044;-68
2023/07/29 01:09:41;;;;;;;8.68;6.00;;;18.40;99.90;;;;;;5022784;28;20082;-67
2023/07/29 01:12:22;;;;;;;10.03;7.53;;;18.40;99.90;;;;;;5053712;28;20052;-67
2023/07/29 01:15:01;;;;;;;6.70;5.90;;;18.30;99.90;;;;;;5053798;28;20284;-66
2023/07/29 01:17:34;;;;;;;9.85;6.38;;;18.30;99.90;;;;;;5053841;28;20081;-69
2023/07/29 01:20:00;;;;;;;11.85;7.68;;;18.20;99.90;;;;;;5052329;28;20052;-68
2023/07/29 01:22:26;;;;;;;9.50;6.93;;;18.20;99.90;;;;;;5053373;28;20049;-67
2023/07/29 01:24:51;;;;;;;8.88;7.22;;;18.10;99.90;;;;;;5019324;28;20057;-67
2023/07/29 01:27:17;;;;;;;5.68;5.07;;;18.10;99.90;;;;;;5053522;28;20068;-69
2023/07/29 01:29:43;;;;;;;9.25;7.25;;;18.10;99.90;;;;;;5053233;28;20037;-67
2023/07/29 01:32:19;;;;;;;7.28;6.00;;;18.00;99.90;;;;;;5053671;28;20123;-68
2023/07/29 01:34:59;;;;;;;8.85;7.07;;;18.00;99.90;;;;;;5053393;28;20059;-67
2023/07/29 01:37:29;;;;;;;9.18;7.20;;;18.00;99.90;;;;;;5053199;28;20472;-67
2023/07/29 01:39:58;;;;;;;8.88;7.18;;;17.90;99.90;;;;;;5053077;28;20048;-67
2023/07/29 01:42:25;;;;;;;8.50;6.97;;;17.90;99.90;;;;;;5052964;28;20052;-67
2023/07/29 01:44:50;;;;;;;12.25;7.25;;;17.90;99.90;;;;;;5052913;28;20103;-67
2023/07/29 01:47:17;;;;;;;8.77;6.30;;;17.80;99.90;;;;;;5035232;28;20044;-67
2023/07/29 01:49:42;;;;;;;6.38;5.78;;;17.80;99.90;;;;;;5052828;28;20041;-67
2023/07/29 01:52:08;;;;;;;13.52;7.43;;;17.80;99.90;;;;;;5052992;28;20044;-67
2023/07/29 01:54:34;;;;;;;6.65;5.07;;;17.80;99.90;;;;;;5035815;28;20391;-67
2023/07/29 01:56:59;;;;;;;5.90;5.18;;;17.70;99.90;;;;;;5052708;28;20136;-68
2023/07/29 01:59:25;;;;;;;7.13;6.43;;;17.70;99.90;;;;;;5052260;28;20045;-67
2023/07/29 02:01:51;;;;;;;7.72;6.68;;;17.60;99.90;;;;;;5052588;28;20037;-67
2023/07/29 02:04:17;;;;;;;8.55;7.15;;;17.60;99.90;;;;;;5053026;28;20053;-67
2023/07/29 02:06:42;;;;;;;7.72;6.50;;;17.60;99.90;;;;;;5035492;28;20052;-67
2023/07/29 02:09:09;;;;;;;8.30;6.93;;;17.50;99.90;;;;;;5052741;28;20051;-68
2023/07/29 02:11:35;;;;;;;8.45;7.55;;;17.50;99.90;;;;;;5035497;28;20060;-67
2023/07/29 02:14:00;;;;;;;7.20;6.50;;;17.50;99.90;;;;;;5052480;28;20496;-67
2023/07/29 02:16:26;;;;;;;7.00;5.43;;;17.50;99.90;;;;;;5052486;28;20056;-67
2023/07/29 02:18:52;;;;;;;8.00;6.70;;;17.50;99.90;;;;;;5052756;28;20049;-67
2023/07/29 02:21:17;;;;;;;9.77;6.28;;;17.40;99.90;;;;;;5052164;28;20079;-67
2023/07/29 02:23:43;;;;;;;5.57;4.93;;;17.50;99.90;;;;;;5052501;28;20458;-69
2023/07/29 02:26:09;;;;;;;7.47;5.97;;;17.50;99.90;;;;;;5035280;28;20532;-69
2023/07/29 02:28:34;;;;;;;8.30;6.57;;;17.50;99.90;;;;;;5052830;28;20077;-67
2023/07/29 02:31:19;;;;;;;8.55;6.85;;;17.50;99.90;;;;;;5051906;28;20475;-67
2023/07/29 02:33:45;;;;;;;9.05;6.78;;;17.50;99.90;;;;;;5035388;28;20052;-67
2023/07/29 02:36:12;;;;;;;7.50;6.03;;;17.50;99.90;;;;;;5052224;28;20383;-67
2023/07/29 02:38:38;;;;;;;8.35;6.65;;;17.50;99.90;;;;;;5052312;28;20092;-67
2023/07/29 02:41:04;;;;;;;9.52;7.15;;;17.50;99.90;;;;;;5052146;28;20037;-67
2023/07/29 02:43:30;;;;;;;6.22;5.25;;;17.50;99.90;;;;;;5052650;28;20101;-69
2023/07/29 02:45:55;;;;;;;6.40;5.75;;;17.50;99.90;;;;;;5035176;28;20477;-66
2023/07/29 02:48:21;;;;;;;8.43;6.22;;;17.50;99.90;;;;;;5052200;28;20044;-67
2023/07/29 02:50:47;;;;;;;7.28;5.82;;;17.50;99.90;;;;;;5052145;28;20095;-67
2023/07/29 02:53:12;;;;;;;7.25;6.03;;;17.50;99.90;;;;;;5052038;28;20497;-68
2023/07/29 02:55:41;;;;;;;5.75;5.13;;;17.50;99.90;;;;;;5051992;28;20101;-68
2023/07/29 02:58:07;;;;;;;7.32;5.55;;;17.50;99.90;;;;;;5052519;28;20041;-67
2023/07/29 03:00:33;;;;;;;7.95;6.25;;;17.40;99.90;;;;;;5051926;28;20386;-67
2023/07/29 03:02:59;;;;;;;8.15;5.88;;;17.40;99.90;;;;;;5052015;28;20049;-67
2023/07/29 03:05:27;;;;;;;7.25;5.70;;;17.40;99.90;;;;;;5052286;28;20118;-67
2023/07/29 03:07:53;;;;;;;7.22;6.28;;;17.40;99.90;;;;;;5052341;28;20041;-67
2023/07/29 03:10:20;;;;;;;5.50;5.00;;;17.40;99.90;;;;;;5052143;28;20094;-67
2023/07/29 03:12:46;;;;;;;7.07;4.60;;;17.30;99.90;;;;;;5052665;28;20129;-67
2023/07/29 03:15:12;;;;;;;5.22;4.68;;;17.40;99.90;;;;;;5051805;28;20040;-68
2023/07/29 03:17:38;;;;;;;6.80;4.97;;;17.40;99.90;;;;;;5051964;28;20049;-67
2023/07/29 03:20:04;;;;;;;5.75;5.15;;;17.40;99.90;;;;;;5051657;28;20135;-67
2023/07/29 03:22:30;;;;;;;7.30;6.03;;;17.40;99.90;;;;;;5051854;28;20064;-67
2023/07/29 03:24:56;;;;;;;5.00;4.05;;;17.40;99.90;;;;;;5052096;28;20060;-68
2023/07/29 03:27:22;;;;;;;6.25;4.88;;;17.40;99.90;;;;;;5051751;28;20049;-67
2023/07/29 03:29:47;;;;;;;5.07;4.13;;;17.40;99.90;;;;;;5051903;28;20492;-66
2023/07/29 03:32:13;;;;;;;7.07;4.75;;;17.40;99.90;;;;;;5051784;28;20037;-67
2023/07/29 03:34:40;;;;;;;5.05;4.25;;;17.30;99.90;;;;;;5051804;28;20048;-67
2023/07/29 03:37:05;;;;;;;5.93;5.22;;;17.30;99.90;;;;;;5051693;28;20048;-67
2023/07/29 03:39:32;;;;;;;5.00;4.50;;;17.30;99.90;;;;;;5051602;28;20132;-66
2023/07/29 03:41:58;;;;;;;5.53;4.97;;;17.30;99.90;;;;;;5051995;28;20067;-66
2023/07/29 03:44:23;;;;;;;4.85;3.75;;;17.30;99.90;;;;;;5055321;28;20051;-68
2023/07/29 03:46:49;;;;;;;6.18;4.05;;;17.20;99.90;;;;;;5055266;28;20132;-66
2023/07/29 03:49:15;;;;;;;4.50;4.10;;;17.20;99.90;;;;;;5055279;28;20045;-67
2023/07/29 03:51:41;;;;;;;4.50;4.10;;;17.20;99.90;;;;;;5055095;28;20500;-66
2023/07/29 03:54:07;;;;;;;4.22;3.60;;;17.10;99.90;;;;;;5055288;28;20124;-66
2023/07/29 03:56:32;;;;;;;6.30;4.32;;;17.10;99.90;;;;;;5037487;28;20438;-66
2023/07/29 03:59:05;;;;;;;6.53;4.30;;;17.10;99.90;;;;;;5055235;28;20481;-66
2023/07/29 04:01:31;;;;;;;4.80;4.30;;;17.10;99.90;;;;;;5054896;28;20112;-66
2023/07/29 04:03:57;;;;;;;5.43;4.38;;;17.10;99.90;;;;;;5037311;28;20137;-68
2023/07/29 04:06:23;;;;;;;5.90;3.83;;;17.10;99.90;;;;;;5054877;28;20128;-67
2023/07/29 04:08:49;;;;;;;7.40;4.13;;;17.00;99.90;;;;;;5054896;28;20076;-66
2023/07/29 04:11:15;;;;;;;5.63;4.32;;;17.10;99.90;;;;;;5054805;28;20473;-67
2023/07/29 04:13:40;;;;;;;7.28;4.63;;;17.00;99.90;;;;;;5054864;28;20052;-66
2023/07/29 04:16:07;;;;;;;4.30;3.15;;;17.00;99.90;;;;;;5037721;28;20465;-66
2023/07/29 04:18:32;;;;;;;4.95;3.63;;;17.00;99.90;;;;;;5054585;28;20120;-66
2023/07/29 04:20:58;;;;;;;4.53;3.97;;;17.00;99.90;;;;;;5054684;28;20099;-66
2023/07/29 04:23:24;;;;;;;5.38;3.72;;;17.00;99.90;;;;;;5054866;28;20164;-68
2023/07/29 04:25:49;;;;;;;4.38;3.95;;;17.10;99.90;;;;;;5054693;28;20055;-67
2023/07/29 04:28:15;;;;;;;4.55;3.97;;;17.10;99.90;;;;;;5054488;28;20466;-66
2023/07/29 04:30:41;;;;;;;6.07;5.18;;;17.10;99.90;;;;;;5054378;28;20120;-68
2023/07/29 04:33:07;;;;;;;5.55;4.05;;;17.10;99.90;;;;;;5054064;28;20486;-66
2023/07/29 04:35:33;;;;;;;6.60;3.92;;;17.10;99.90;;;;;;5054577;28;20103;-68
2023/07/29 04:37:58;;;;;;;3.83;3.10;;;16.90;99.90;;;;;;5054139;28;20450;-67
2023/07/29 04:40:24;;;;;;;5.15;4.10;;;17.20;99.90;;;;;;5053867;28;20052;-66
2023/07/29 04:42:51;;;;;;;6.90;5.38;;;17.20;99.90;;;;;;5054615;28;20053;-66
2023/07/29 04:45:17;;;;;;;7.18;4.93;;;17.30;99.90;;;;;;5054093;28;20080;-67
2023/07/29 04:47:43;;;;;;;5.97;5.18;;;17.30;99.90;;;;;;5054082;28;20090;-66
2023/07/29 04:50:09;;;;;;;6.15;5.35;;;17.40;99.90;;;;;;5036506;28;20056;-67
2023/07/29 04:52:34;;;;;;;6.10;4.82;;;17.50;99.90;;;;;;5054369;28;20049;-66
2023/07/29 04:55:00;;;;;;;6.55;5.72;;;17.50;99.90;;;;;;5054229;28;20118;-66
2023/07/29 04:57:26;;;;;;;5.95;4.93;;;17.60;99.90;;;;;;5053911;28;20132;-66
2023/07/29 04:59:51;;;;;;;4.70;4.05;;;17.60;99.90;;;;;;5053953;28;20438;-66
2023/07/29 05:02:17;;;;;;;7.57;4.82;;;17.60;99.90;;;;;;5053856;28;20401;-66
2023/07/29 05:04:43;;;;;;;5.15;3.40;;;17.60;99.90;;;;;;5036036;28;20073;-66
2023/07/29 05:07:08;;;;;;;5.45;4.15;;;17.70;99.90;;;;;;5053766;28;20044;-67
2023/07/29 05:09:34;;;;;;;7.43;4.40;;;17.70;99.90;;;;;;5036262;28;20483;-67
2023/07/29 05:12:00;;;;;;;4.80;4.25;;;17.80;99.90;;;;;;5019838;28;20049;-67
2023/07/29 05:14:26;;;;;;;7.95;5.03;;;17.70;99.90;;;;;;5054035;28;20048;-66
2023/07/29 05:16:51;;;;;;;8.45;4.47;;;17.80;99.90;;;;;;5053576;28;20049;-67
2023/07/29 05:19:17;;;;;;;5.05;3.88;;;17.80;99.90;;;;;;5053669;28;20102;-67
2023/07/29 05:21:43;;;;;;;4.82;4.35;;;17.80;99.90;;;;;;5053327;28;20191;-66
2023/07/29 05:24:09;;;;;;;4.60;4.10;;;17.80;99.90;;;;;;5053592;28;20052;-67
2023/07/29 05:26:35;;;;;;;6.72;4.65;;;17.80;99.90;;;;;;5035545;28;20049;-67
2023/07/29 05:29:00;;;;;;;5.50;4.22;;;17.80;99.90;;;;;;5053329;28;20067;-66
2023/07/29 05:31:26;;;;;;;6.35;4.05;;;17.70;99.90;;;;;;5053191;28;20037;-68
2023/07/29 05:33:52;;;;;;;4.30;3.78;;;17.80;99.90;;;;;;5053193;28;20044;-68
2023/07/29 05:36:17;;;;;;;5.10;3.63;;;17.80;99.90;;;;;;5053198;28;20079;-67
2023/07/29 05:38:43;;;;;;;3.35;3.05;;;17.80;99.90;;;;;;5053523;28;20483;-69
2023/07/29 05:41:09;;;;;;;5.40;3.67;;;17.80;99.90;;;;;;5053058;28;20088;-68
2023/07/29 05:43:34;;;;;;;4.25;3.83;;;17.90;99.90;;;;;;5053488;28;20511;-67
2023/07/29 05:46:00;;;;;;;4.22;3.40;;;17.90;99.90;;;;;;5053071;28;20052;-67
2023/07/29 05:48:26;;;;;;;4.90;3.55;;;17.90;99.90;;;;;;5035153;28;20056;-67
2023/07/29 05:50:51;;;;;;;4.43;3.20;;;17.90;99.90;;;;;;5019204;28;20090;-66
2023/07/29 05:53:17;;;;;;;4.88;3.58;;;17.90;99.90;;;;;;5052981;28;20041;-67
2023/07/29 05:55:43;;;;;;;3.50;3.00;;;18.00;99.90;;;;;;5052720;28;20479;-67
2023/07/29 05:58:09;;;;;;;6.10;3.83;;;18.00;99.90;;;;;;5053112;28;20051;-68
2023/07/29 06:00:35;;;;;;;4.93;3.08;;;18.00;99.90;;;;;;5052685;28;20092;-67
2023/07/29 06:03:00;;;;;;;7.85;3.47;;;18.00;99.90;;;;;;5035080;28;20048;-67
2023/07/29 06:05:26;;;;;;;6.30;3.20;;;18.00;99.90;;;;;;5052126;28;20110;-67
2023/07/29 06:07:52;;;;;;;4.93;3.42;;;18.10;99.90;;;;;;5052592;28;20102;-67
2023/07/29 06:10:18;;;;;;;4.80;2.90;;;18.10;99.90;;;;;;5052696;28;20088;-67
2023/07/29 06:12:44;;;;;;;3.17;2.88;;;18.10;99.90;;;;;;5052703;28;20553;-68
2023/07/29 06:15:10;;;;;;;6.43;3.13;;;18.10;99.90;;;;;;5052676;28;20406;-66
2023/07/29 06:17:36;;;;;;;3.83;2.92;;;18.20;99.90;;;;;;5052372;28;20466;-67
2023/07/29 06:20:03;;;;;;;3.35;2.40;;;18.30;99.90;;;;;;5052038;28;20068;-67
2023/07/29 06:22:28;;;;;;;3.78;2.45;;;18.30;99.90;;;;;;5052271;28;20053;-69
2023/07/29 06:24:54;;;;;;;6.18;2.88;;;18.40;99.90;;;;;;5052131;28;20057;-68
2023/07/29 06:27:19;;;;;;;3.25;2.10;;;18.50;99.90;;;;;;5052452;28;20493;-67
2023/07/29 06:29:45;;;;;;;2.83;2.42;;;18.50;99.90;;;;;;5052256;28;20048;-67
2023/07/29 06:32:11;;;;;;;3.65;2.47;;;18.50;99.90;;;;;;5052468;28;20045;-67
2023/07/29 06:34:36;;;;;;;4.65;3.03;;;18.50;99.90;;;;;;5052592;28;20051;-68
2023/07/29 06:37:02;;;;;;;4.13;2.20;;;18.60;99.90;;;;;;5052099;28;20458;-68
2023/07/29 06:39:28;;;;;;;3.97;2.78;;;18.70;99.90;;;;;;5052094;28;20132;-67
2023/07/29 06:41:53;;;;;;;3.50;2.45;;;18.90;99.90;;;;;;5052473;28;20044;-69
2023/07/29 06:44:19;;;;;;;4.05;2.55;;;19.40;99.90;;;;;;5052600;28;20415;-68
2023/07/29 06:46:45;;;;;;;4.07;2.40;;;20.40;99.90;;;;;;5051921;28;20041;-70
2023/07/29 06:49:11;;;;;;;6.07;2.60;;;21.50;99.90;;;;;;5034313;28;20183;-67
2023/07/29 06:51:36;;;;;;;4.57;2.65;;;22.10;99.90;;;;;;5051830;28;20037;-69
2023/07/29 06:54:02;;;;;;;4.57;2.67;;;22.30;99.90;;;;;;5034670;28;20057;-69
2023/07/29 06:56:29;;;;;;;3.33;2.40;;;22.00;99.90;;;;;;5051814;28;20053;-68
2023/07/29 06:58:54;;;;;;;3.63;2.40;;;21.70;99.90;;;;;;5051734;28;20183;-67
2023/07/29 07:01:20;;;;;;;4.22;2.83;;;21.40;99.90;;;;;;5052049;28;20041;-69
2023/07/29 07:03:46;;;;;;;3.47;2.38;;;21.20;99.90;;;;;;5052051;28;20037;-68
2023/07/29 07:06:11;;;;;;;3.83;2.72;;;21.10;99.90;;;;;;5052067;28;20080;-67
2023/07/29 07:08:37;;;;;;;5.70;3.40;;;21.10;99.90;;;;;;5052161;28;20547;-67
2023/07/29 07:11:03;;;;;;;3.47;3.03;;;21.00;99.90;;;;;;5051948;28;20041;-67
2023/07/29 07:13:28;;;;;;;4.70;3.50;;;21.10;99.90;;;;;;5017942;28;20047;-77
2023/07/29 07:15:55;;;;;;;8.13;3.90;;;21.10;99.90;;;;;;5052217;28;20080;-68
2023/07/29 07:18:23;;;;;;;6.25;4.10;;;21.10;99.90;;;;;;5055686;28;20048;-68
2023/07/29 07:20:50;;;;;;;4.90;3.33;;;21.20;99.90;;;;;;5055389;28;20506;-73
2023/07/29 07:23:17;;;;;;;6.28;3.70;;;21.40;99.90;;;;;;5055403;28;20041;-67
2023/07/29 07:25:42;;;;;;;8.32;4.10;;;21.20;99.90;;;;;;5055604;28;20041;-69
2023/07/29 07:28:09;;;;;;;4.82;3.75;;;21.10;99.90;;;;;;5037812;28;20374;-67
2023/07/29 07:30:35;;;;;;;5.13;4.22;;;20.90;99.90;;;;;;5055482;28;20098;-68
2023/07/29 07:33:00;;;;;;;5.85;3.78;;;20.80;99.90;;;;;;5021814;28;20062;-68
2023/07/29 07:35:26;;;;;;;7.57;4.10;;;20.80;99.90;;;;;;5055476;28;20088;-67
2023/07/29 07:37:52;;;;;;;6.15;4.30;;;20.80;99.90;;;;;;5055349;28;20040;-67
2023/07/29 07:40:18;;;;;;;7.22;4.18;;;21.10;99.90;;;;;;5055142;28;20056;-68
2023/07/29 07:42:44;;;;;;;8.07;4.30;;;21.20;99.90;;;;;;5055214;28;20095;-69
2023/07/29 07:45:09;;;;;;;7.43;4.07;;;21.30;99.90;;;;;;5055208;28;20049;-68
2023/07/29 07:47:35;;;;;;;4.35;3.72;;;21.60;99.90;;;;;;5055131;28;20508;-67
2023/07/29 07:50:01;;;;;;;7.40;3.88;;;22.40;99.90;;;;;;5055324;28;20512;-67
2023/07/29 07:52:27;;;;;;;5.18;3.80;;;23.50;99.90;;;;;;5055247;28;20041;-67
2023/07/29 07:54:54;;;;;;;8.05;4.20;;;24.20;99.90;;;;;;5037168;28;20049;-67
2023/07/29 07:57:22;;;;;;;6.53;3.38;;;24.40;99.90;;;;;;5055324;28;20048;-68
2023/07/29 07:59:48;;;;;;;8.07;3.92;;;24.20;99.90;;;;;;5037294;28;20124;-67
2023/07/29 08:02:14;;;;;;;5.45;4.07;;;24.30;99.90;;;;;;5055323;28;20120;-67
2023/07/29 08:04:40;;;;;;;5.75;3.88;;;24.50;99.90;;;;;;5037043;28;20075;-68
2023/07/29 08:07:05;;;;;;;5.20;3.30;;;24.30;99.90;;;;;;5054916;28;20514;-67
2023/07/29 08:09:31;;;;;;;5.60;4.15;;;24.60;99.90;;;;;;5054712;28;20069;-68
2023/07/29 08:11:57;;;;;;;4.63;3.08;;;24.90;99.90;;;;;;5036948;28;20087;-68
2023/07/29 08:14:22;;;;;;;5.55;3.60;;;25.10;99.90;;;;;;5020737;28;20084;-68
2023/07/29 08:16:48;;;;;;;6.13;3.30;;;25.00;99.90;;;;;;5037106;28;20457;-68
2023/07/29 08:19:14;;;;;;;6.70;3.90;;;25.20;99.90;;;;;;5054427;28;20052;-68
2023/07/29 08:21:39;;;;;;;4.38;3.47;;;25.80;99.90;;;;;;5054113;28;20061;-67
2023/07/29 08:24:07;;;;;;;7.43;3.25;;;26.00;99.90;;;;;;5054355;28;20053;-68
2023/07/29 08:26:33;;;;;;;5.70;3.15;;;26.10;99.90;;;;;;5054387;28;20056;-67
2023/07/29 08:28:58;;;;;;;4.97;3.22;;;26.20;99.90;;;;;;5054020;28;20053;-67
2023/07/29 08:31:24;;;;;;;9.07;3.45;;;26.80;99.90;;;;;;5054336;28;20037;-69
2023/07/29 08:33:50;;;;;;;4.53;2.50;;;27.10;99.90;;;;;;5054325;28;20528;-69
2023/07/29 08:36:16;;;;;;;3.85;3.10;;;26.80;99.90;;;;;;5037158;28;20106;-67
2023/07/29 08:38:41;;;;;;;7.45;2.78;;;26.80;99.90;;;;;;5054284;28;20048;-67
2023/07/29 08:41:18;;;;;;;4.35;2.63;;;26.60;99.90;;;;;;5054186;28;20118;-67
2023/07/29 08:44:10;;;;;;;2.53;2.05;;;26.50;99.90;;;;;;5054192;28;20048;-68
2023/07/29 08:46:37;;;;;;;4.88;2.30;;;26.40;98.30;;;;;;5043212;28;20059;-69
2023/07/29 08:49:03;;;;;;;4.35;2.45;;;26.60;99.90;;;;;;5053982;28;20056;-68
2023/07/29 08:51:31;;;;;;;7.78;2.65;;;26.50;99.90;;;;;;5036267;28;20486;-68
2023/07/29 08:53:58;;;;;;;3.33;2.35;;;26.10;99.90;;;;;;5036175;28;20053;-67
2023/07/29 08:56:24;;;;;;;4.72;2.50;;;26.10;99.90;;;;;;5053844;28;20092;-70
2023/07/29 08:58:50;;;;;;;3.15;2.20;;;26.00;99.90;;;;;;5053738;28;20053;-69
2023/07/29 09:01:16;;;;;;;3.13;2.83;;;25.60;99.90;;;;;;5054200;28;20052;-70
2023/07/29 09:03:42;;;;;;;3.53;2.63;;;24.80;99.90;;;;;;5035937;28;20532;-69
2023/07/29 09:06:08;;;;;;;4.60;2.97;;;24.20;99.90;;;;;;5054002;28;20581;-68
2023/07/29 09:08:34;;;;;;;5.65;2.28;;;24.20;99.90;;;;;;5054012;28;20048;-68
2023/07/29 09:11:00;;;;;;;3.70;2.83;;;24.60;99.90;;;;;;5053573;28;20048;-70
2023/07/29 09:13:26;;;;;;;4.70;2.42;;;24.60;99.90;;;;;;5053642;28;20047;-68
2023/07/29 09:15:57;;;;;;;2.42;2.20;;;24.30;99.90;;;;;;5053503;28;20397;-68
2023/07/29 09:18:25;;;;;;;5.22;2.70;;;24.00;99.90;;;;;;5035641;28;20041;-67
2023/07/29 09:20:51;;;;;;;2.80;2.42;;;23.70;99.90;;;;;;5031790;28;20097;-68
2023/07/29 09:23:17;;;;;;;2.40;2.20;;;23.60;99.90;;;;;;5032408;28;20076;-67
2023/07/29 09:25:45;;;;;;;5.93;3.00;;;23.60;99.90;;;;;;5033606;28;20080;-67
2023/07/29 09:28:13;;;;;;;3.75;2.55;;;23.70;99.90;;;;;;5033418;28;20042;-68
2023/07/29 09:30:40;;;;;;;7.88;2.83;;;24.50;99.90;;;;;;5033842;28;20048;-70
2023/07/29 09:33:07;;;;;;;3.88;2.72;;;25.50;99.90;;;;;;5033330;28;20045;-67
2023/07/29 09:35:35;;;;;;;2.10;1.80;;;26.30;99.90;;;;;;5033337;28;20148;-68
2023/07/29 09:38:02;;;;;;;5.53;2.20;;;26.30;99.90;;;;;;5033294;28;20084;-67
2023/07/29 09:40:33;;;;;;;3.88;2.40;;;25.80;99.90;;;;;;5015413;28;20052;-67
2023/07/29 09:42:59;;;;;;;2.47;2.28;;;25.30;99.90;;;;;;5033296;28;20049;-67
2023/07/29 09:45:26;;;;;;;3.25;2.10;;;25.40;99.90;;;;;;5031838;28;20056;-67
2023/07/29 09:47:54;;;;;;;2.25;2.05;;;25.30;99.90;;;;;;5033412;28;20081;-67
2023/07/29 09:50:26;;;;;;;3.40;2.00;;;25.30;99.90;;;;;;5033125;28;20041;-67
2023/07/29 09:52:54;;;;;;;7.35;2.05;;;25.30;99.90;;;;;;5033059;28;20125;-67
2023/07/29 09:55:23;;;;;;;3.05;1.75;;;26.10;99.90;;;;;;5031937;28;20590;-67
2023/07/29 09:58:02;;;;;;;3.65;1.98;;;26.90;99.90;;;;;;5032774;28;20112;-68
2023/07/29 10:00:31;;;;;;;2.65;1.83;;;27.00;99.90;;;;;;5033435;28;20055;-67
2023/07/29 10:02:58;;;;;;;4.50;2.00;;;26.50;99.60;;;;;;5033212;28;20045;-67
2023/07/29 10:05:27;;;;;;;2.47;2.08;;;26.30;99.90;;;;;;5032868;28;20057;-69
2023/07/29 10:07:54;;;;;;;3.05;1.60;;;26.50;99.90;;;;;;5031466;28;20589;-66
2023/07/29 10:10:20;;;;;;;1.98;1.48;;;27.10;99.90;;;;;;5032845;28;20072;-68
2023/07/29 10:12:47;;;;;;;2.20;1.80;;;27.70;99.90;;;;;;5032207;28;20046;-67
2023/07/29 10:15:14;;;;;;;3.80;1.55;;;27.70;99.90;;;;;;5032461;28;20061;-67
2023/07/29 10:17:40;;;;;;;3.53;1.95;;;27.30;99.90;;;;;;5031790;28;20124;-67
2023/07/29 10:20:08;;;;;;;3.25;1.77;;;27.20;99.90;;;;;;5035893;28;20064;-67
2023/07/29 10:22:42;;;;;;;4.20;1.60;;;27.20;99.90;;;;;;5052584;28;20057;-67
2023/07/29 10:25:26;;;;;;;2.10;1.60;;;27.10;98.80;;;;;;5034906;28;20526;-66
2023/07/29 10:27:54;;;;;;;2.33;1.98;;;26.70;98.50;;;;;;5052836;28;20052;-68
2023/07/29 10:30:20;;;;;;;2.05;1.80;;;26.50;99.90;;;;;;5052322;28;20041;-67
2023/07/29 10:32:46;;;;;;;3.45;1.80;;;26.60;99.90;;;;;;5052274;28;20045;-68
2023/07/29 10:35:14;;;;;;;3.53;2.20;;;26.40;99.90;;;;;;5051945;28;20048;-69
2023/07/29 10:37:40;;;;;;;4.22;1.60;;;26.30;99.90;;;;;;5052296;28;20128;-67
2023/07/29 10:40:08;;;;;;;2.95;1.95;;;26.20;99.90;;;;;;5052733;28;20045;-68
2023/07/29 10:42:34;;;;;;;2.45;1.95;;;26.10;99.90;;;;;;5052385;28;20057;-69
2023/07/29 10:45:16;;;;;;;2.65;1.98;;;26.40;99.90;;;;;;5052301;28;20146;-69
2023/07/29 10:47:42;;;;;;;2.10;1.90;;;26.60;99.90;;;;;;5052819;28;20136;-67
2023/07/29 10:50:20;;;;;;;2.58;2.30;;;27.20;99.90;;;;;;5018751;28;20482;-67
2023/07/29 10:52:52;;;;;;;3.28;2.10;;;27.90;99.90;;;;;;5055536;28;20045;-66
2023/07/29 10:55:26;;;;;;;1.90;1.70;;;28.20;99.40;;;;;;5056620;28;20048;-67
2023/07/29 10:57:52;;;;;;;3.30;2.00;;;28.60;99.70;;;;;;5056344;28;20099;-69
2023/07/29 11:00:21;;;;;;;2.80;1.80;;;28.80;99.60;;;;;;5056014;28;20366;-66
2023/07/29 11:03:02;;;;;;;3.45;2.00;;;28.00;97.70;;;;;;5056108;28;20438;-66
2023/07/29 11:05:51;;;;;;;1.95;1.70;;;27.40;98.00;;;;;;5038639;28;20389;-66
2023/07/29 11:08:28;;;;;;;2.53;1.52;;;27.00;97.60;;;;;;5056037;28;20037;-67
2023/07/29 11:11:12;;;;;;;1.42;1.10;;;26.50;98.50;;;;;;5056067;28;20053;-69
2023/07/29 11:13:38;;;;;;;2.30;1.50;;;26.20;98.00;;;;;;5056518;28;20068;-67
2023/07/29 11:16:05;;;;;;;3.45;1.48;;;26.30;98.90;;;;;;5056261;28;20496;-67
2023/07/29 11:18:33;;;;;;;2.40;1.58;;;26.20;98.50;;;;;;5056273;28;20105;-66
2023/07/29 11:20:59;;;;;;;1.63;1.27;;;25.20;99.60;;;;;;5055636;28;20100;-67
2023/07/29 11:23:33;;;;;;;2.60;1.20;;;24.70;99.90;;;;;;5038583;28;20060;-66
2023/07/29 11:25:59;;;;;;;3.22;1.42;;;24.40;99.90;;;;;;5055439;28;20486;-67
2023/07/29 11:28:26;;;;;;;4.63;1.95;;;24.20;99.90;;;;;;5055215;28;20382;-66
2023/07/29 11:30:53;;;;;;;2.30;1.45;;;24.20;99.90;;;;;;5055708;28;20045;-66
2023/07/29 11:33:27;;;;;;;3.83;1.58;;;24.60;99.90;;;;;;5055474;28;20041;-66
2023/07/29 11:35:54;;;;;;;2.20;1.30;;;24.90;99.90;;;;;;5056020;28;20130;-65
2023/07/29 11:38:21;;;;;;;1.90;1.20;;;25.10;99.90;;;;;;5055842;28;20128;-66
2023/07/29 11:40:59;;;;;;;2.75;1.60;;;25.10;99.90;;;;;;5055654;28;20051;-66
2023/07/29 11:43:26;;;;;;;2.72;1.60;;;25.20;99.90;;;;;;5037625;28;20497;-66
2023/07/29 11:45:53;;;;;;;4.53;1.90;;;25.30;99.90;;;;;;5055068;28;20052;-66
2023/07/29 11:48:26;;;;;;;4.70;1.50;;;25.10;99.90;;;;;;5055298;28;20084;-66
2023/07/29 11:50:53;;;;;;;2.45;1.50;;;25.10;99.90;;;;;;5055593;28;20049;-67
2023/07/29 11:53:19;;;;;;;2.78;2.03;;;25.20;99.90;;;;;;5055915;28;20079;-67
2023/07/29 11:55:49;;;;;;;4.10;2.28;;;25.30;99.90;;;;;;5055629;28;20477;-67
2023/07/29 11:58:15;;;;;;;4.55;1.70;;;25.40;99.90;;;;;;5055559;28;20051;-67
2023/07/29 12:00:41;;;;;;;2.92;1.80;;;25.40;99.90;;;;;;5021073;28;20045;-67
2023/07/29 12:03:09;;;;;;;3.10;2.20;;;25.20;99.90;;;;;;5054094;28;20044;-66
2023/07/29 12:05:35;;;;;;;2.67;2.33;;;25.10;99.70;;;;;;5054947;28;20048;-66
2023/07/29 12:08:01;;;;;;;5.82;1.90;;;25.20;99.90;;;;;;5054978;28;20049;-66
2023/07/29 12:10:27;;;;;;;4.15;2.13;;;25.20;99.90;;;;;;5054903;28;20056;-68
2023/07/29 12:12:53;;;;;;;3.42;2.03;;;25.10;99.90;;;;;;5054937;28;20045;-67
2023/07/29 12:15:26;;;;;;;2.38;1.90;;;24.80;99.90;;;;;;5054859;28;20049;-66
2023/07/29 12:17:55;;;;;;;3.83;2.83;;;24.50;99.90;;;;;;5037048;28;20117;-66
2023/07/29 12:20:21;;;;;;;3.60;2.40;;;24.20;99.90;;;;;;5036848;28;20060;-67
2023/07/29 12:22:58;;;;;;;6.00;3.10;;;24.00;99.90;;;;;;5054869;28;20053;-66
2023/07/29 12:25:27;;;;;;;4.65;3.33;;;23.90;99.90;;;;;;5055119;28;20118;-69
2023/07/29 12:27:53;;;;;;;4.88;2.70;;;23.80;99.90;;;;;;5054651;28;20041;-66
2023/07/29 12:30:22;;;;;;;4.05;2.92;;;23.90;99.90;;;;;;5054522;28;20116;-67
2023/07/29 12:32:48;;;;;;;4.75;2.50;;;24.20;99.90;;;;;;5055246;28;20048;-67
2023/07/29 12:35:14;;;;;;;4.47;2.60;;;24.40;99.90;;;;;;5054874;28;20432;-66
2023/07/29 12:37:42;;;;;;;5.47;2.75;;;24.40;99.90;;;;;;5054871;28;20049;-65
2023/07/29 12:40:21;;;;;;;4.70;2.45;;;24.50;99.90;;;;;;5054046;28;20428;-66
2023/07/29 12:42:47;;;;;;;3.92;2.88;;;24.40;99.90;;;;;;5054688;28;20113;-66
2023/07/29 12:45:15;;;;;;;5.53;2.50;;;24.50;99.90;;;;;;5054238;28;20427;-67